CheckWX is a tool to help pilots better visualize weather data.  It is not intended as a substitute for an official pre-flight weather briefing.

19:52:02 UTC

CYAM METAR
Sault Ste Marie Airport
Sault Ste Marie, Canada
Current

52 mins ago

CYAM 201900Z 19006KT 150V210 10SM FEW015 SCT020 OVC027 03/02 A3010 RMK CF1CF2SC5 SLP204
Observed
Nov-20 @ 19:00 UTC
Wind
  • 190° at 6 KTS
Visibility
10 SM
Flight Rules
MVFR
Cloud Levels
  • Few at 1,500' AGL
  • Scattered at 2,000' AGL
  • Overcast at 2,700' AGL
Temperature
C / 37°F
Dewpoint
C / 36°F
Humidity
93%
Altimeter
30.1" Hg
Pressure
1019.32 hPa
Previous

2 hours ago

CYAM 201800Z 20007KT 12SM FEW014 BKN026 OVC034 03/01 A3010 RMK CF2SC5SC1 SLP203
Observed
Nov-20 @ 18:00 UTC
Wind
  • 200° at 7 KTS
Visibility
12 SM
Flight Rules
MVFR
Cloud Levels
  • Few at 1,400' AGL
  • Broken at 2,600' AGL
  • Overcast at 3,400' AGL
Temperature
C / 37°F
Dewpoint
C / 34°F
Humidity
87%
Altimeter
30.1" Hg
Pressure
1019.32 hPa
Previous

3 hours ago

CYAM 201700Z 20004KT 12SM FEW012 BKN028 OVC038 03/01 A3010 RMK CF1SC5SC2 SLP204
Observed
Nov-20 @ 17:00 UTC
Wind
  • 200° at 4 KTS
Visibility
12 SM
Flight Rules
MVFR
Cloud Levels
  • Few at 1,200' AGL
  • Broken at 2,800' AGL
  • Overcast at 3,800' AGL
Temperature
C / 37°F
Dewpoint
C / 34°F
Humidity
87%
Altimeter
30.1" Hg
Pressure
1019.32 hPa